createdAt,value
2019-04-04T00:01:24.014Z,51
2019-04-04T00:06:26.976Z,51.1
2019-04-04T00:11:28.961Z,51.1
2019-04-04T00:16:31.389Z,50.9
2019-04-04T00:21:33.992Z,51
2019-04-04T00:26:36.234Z,51.2
2019-04-04T00:31:38.702Z,52.2
2019-04-04T00:36:41.172Z,52.4
2019-04-04T00:41:44.840Z,52.7
2019-04-04T00:46:45.966Z,53.5
2019-04-04T00:51:48.414Z,53.9
2019-04-04T00:56:50.873Z,53.6
2019-04-04T01:01:54.998Z,53.6
2019-04-04T01:06:55.737Z,53.5
2019-04-04T01:11:58.166Z,53.6
2019-04-04T01:17:02.019Z,53.8
2019-04-04T01:22:03.043Z,53.8
2019-04-04T01:27:06.199Z,53.8
2019-04-04T01:32:07.925Z,54.3
2019-04-04T01:37:10.359Z,54.2
2019-04-04T01:42:12.831Z,54.3
2019-04-04T01:47:16.924Z,54
2019-04-04T01:52:17.688Z,54.2
2019-04-04T01:57:20.343Z,54.3
2019-04-04T02:02:22.590Z,54.4
2019-04-04T02:07:25.083Z,55.8
2019-04-04T02:12:27.446Z,56
2019-04-04T02:17:29.884Z,56.9
2019-04-04T02:22:32.323Z,57.3
2019-04-04T02:27:37.492Z,57.2
2019-04-04T02:32:37.231Z,56.7
2019-04-04T02:37:39.851Z,56.4
2019-04-04T02:42:42.081Z,57.3
2019-04-04T02:47:44.540Z,57.1
2019-04-04T02:52:47.038Z,57.1
2019-04-04T02:57:49.527Z,58.2
2019-04-04T03:02:51.971Z,57.8
2019-04-04T03:07:54.396Z,59.8
2019-04-04T03:12:58.448Z,63.5
2019-04-04T03:17:59.203Z,68
2019-04-04T03:23:01.663Z,72.2
2019-04-04T03:28:04.058Z,74.8
2019-04-04T03:33:06.628Z,74.1
2019-04-04T03:38:10.648Z,78.7
2019-04-04T03:43:15.670Z,86.2
2019-04-04T03:48:16.737Z,87.9
2019-04-04T03:53:17.263Z,86.4
2019-04-04T03:58:18.712Z,86.2
2019-04-04T04:03:22.611Z,87.9
2019-04-04T04:08:23.565Z,90.2
2019-04-04T04:13:26.051Z,87.2
2019-04-04T04:18:28.453Z,85.3
2019-04-04T04:23:30.891Z,85.1
2019-04-04T04:28:33.323Z,84.5
2019-04-04T04:33:35.775Z,85.9
2019-04-04T04:38:38.211Z,86
2019-04-04T04:43:40.639Z,84.9
2019-04-04T04:48:43.088Z,84.4
2019-04-04T04:53:45.547Z,85.6
2019-04-04T04:58:47.971Z,86.3
2019-04-04T05:03:50.882Z,86.7
2019-04-04T05:08:52.999Z,88.1
2019-04-04T05:13:56.017Z,90.2
2019-04-04T05:18:57.761Z,90.2
2019-04-04T05:24:00.175Z,89.7
2019-04-04T05:29:02.616Z,90
2019-04-04T05:34:05.083Z,90
2019-04-04T05:44:10.406Z,90.1
2019-04-04T05:49:12.384Z,90.2
2019-04-04T05:54:14.837Z,90.1
2019-04-04T05:59:17.363Z,90.3
2019-04-04T06:04:20.248Z,90.1
2019-04-04T06:09:22.192Z,89.4
2019-04-04T06:14:24.584Z,88.2
2019-04-04T06:19:27.035Z,87.2
2019-04-04T06:24:29.498Z,86.5
2019-04-04T06:29:31.980Z,86.9
2019-04-04T06:34:34.358Z,85.7
2019-04-04T06:39:36.991Z,85.5
2019-04-04T06:44:39.247Z,85.1
2019-04-04T06:49:41.669Z,83.7
2019-04-04T06:54:44.127Z,81.9
2019-04-04T06:59:46.604Z,80.5
2019-04-04T07:04:48.980Z,79.6
2019-04-04T07:09:51.782Z,77.6
2019-04-04T07:14:53.933Z,75.8
2019-04-04T07:19:56.337Z,75.6
2019-04-04T07:25:01.043Z,74.5
2019-04-04T07:30:01.199Z,73.6
2019-04-04T07:35:03.624Z,72.5
2019-04-04T07:40:06.091Z,72.5
2019-04-04T07:45:08.599Z,74.3
2019-04-04T07:50:10.957Z,75
2019-04-04T07:55:13.685Z,75.3
2019-04-04T08:00:15.830Z,75.2
2019-04-04T08:05:18.286Z,74.4
2019-04-04T08:10:21.214Z,73.1
2019-04-04T08:15:23.149Z,71.3
2019-04-04T08:20:25.593Z,71.1
2019-04-04T08:25:28.656Z,70.7
2019-04-04T08:30:30.473Z,68.2
2019-04-04T08:35:32.932Z,66
2019-04-04T08:40:35.519Z,64.6
2019-04-04T08:45:37.782Z,62.8
2019-04-04T08:50:40.327Z,61.6
2019-04-04T09:00:45.124Z,59.4
2019-04-04T09:05:47.548Z,58.7
2019-04-04T09:10:50.029Z,59.1
2019-04-04T09:15:52.430Z,58.8
2019-04-04T09:20:54.877Z,57.8
2019-04-04T09:26:05.212Z,58.1
2019-04-04T09:30:59.779Z,57.9
2019-04-04T09:36:02.387Z,57.3
2019-04-04T09:41:04.697Z,56.3
2019-04-04T09:46:07.069Z,55.9
2019-04-04T09:56:11.961Z,54.9
2019-04-04T10:01:14.396Z,54.7
2019-04-04T10:06:16.836Z,54
2019-04-04T10:11:19.282Z,52.9
2019-04-04T10:16:21.835Z,52
2019-04-04T10:26:26.611Z,50.7
2019-04-04T10:31:29.101Z,51.4
2019-04-04T10:36:31.748Z,51.5
2019-04-04T10:41:33.950Z,50.7
2019-04-04T10:51:39.063Z,50.3
2019-04-04T10:56:41.672Z,49.5
2019-04-04T11:01:43.680Z,47
2019-04-04T11:06:46.315Z,47.5
2019-04-04T11:11:48.607Z,47
2019-04-04T11:16:51.026Z,46.2
2019-04-04T11:21:53.452Z,44.7
2019-04-04T11:26:55.880Z,44.8
2019-04-04T11:31:58.334Z,44.7
2019-04-04T11:37:00.815Z,45.6
2019-04-04T11:42:03.272Z,44.6
2019-04-04T11:47:05.647Z,42.6
2019-04-04T11:52:08.182Z,41.7
2019-04-04T11:57:10.524Z,42.9
2019-04-04T12:02:12.964Z,44
2019-04-04T12:07:15.478Z,43.1
2019-04-04T12:12:17.862Z,42.4
2019-04-04T12:17:20.391Z,41.8
2019-04-04T12:22:22.823Z,40
2019-04-04T12:27:25.169Z,40.3
2019-04-04T12:32:27.706Z,39.1
2019-04-04T12:37:30.144Z,38.8
2019-04-04T12:42:32.767Z,36.6
2019-04-04T12:47:34.976Z,35.9
2019-04-04T12:52:37.499Z,35.4
2019-04-04T12:57:40.074Z,36.1
2019-04-04T13:02:42.274Z,35
2019-04-04T13:12:47.259Z,30.5
2019-04-04T13:17:49.614Z,32.7
2019-04-04T13:22:52.104Z,32.9
2019-04-04T13:27:54.503Z,30.4
2019-04-04T13:32:56.933Z,31.2
2019-04-04T13:37:59.373Z,31.1
2019-04-04T13:43:01.852Z,29.3
2019-04-04T13:48:04.379Z,29
2019-04-04T13:53:06.763Z,29.2
2019-04-04T13:58:09.143Z,28.4
2019-04-04T14:03:11.591Z,28.2
2019-04-04T14:08:14.437Z,27.9
2019-04-04T14:13:16.444Z,27.2
2019-04-04T14:18:18.913Z,27.4
2019-04-04T14:23:21.974Z,27.7
2019-04-04T14:28:23.797Z,26.5
2019-04-04T14:33:26.227Z,27
2019-04-04T14:38:28.665Z,28
2019-04-04T14:43:31.122Z,28.1
2019-04-04T14:48:33.540Z,28.3
2019-04-04T14:53:36.032Z,28
2019-04-04T14:58:38.453Z,27.8
2019-04-04T15:03:42.265Z,28.2
2019-04-04T15:08:43.315Z,27.4
2019-04-04T15:13:45.872Z,27.6
2019-04-04T15:18:48.201Z,27.7
2019-04-04T15:23:50.798Z,27.7
2019-04-04T15:28:53.075Z,27.8
2019-04-04T15:33:55.530Z,27.6
2019-04-04T15:38:57.962Z,27.4
2019-04-04T15:44:00.432Z,26.7
2019-04-04T15:49:02.848Z,26.8
2019-04-04T15:54:05.340Z,26.3
2019-04-04T15:59:07.851Z,26.4
2019-04-04T16:04:10.319Z,26
2019-04-04T16:09:12.644Z,26.4
2019-04-04T16:14:15.050Z,26.1
2019-04-04T16:19:17.531Z,25.8
2019-04-04T16:24:19.999Z,26.6
2019-04-04T16:29:22.503Z,27.1
2019-04-04T16:34:25.025Z,27.4
2019-04-04T16:39:27.625Z,28.1
2019-04-04T16:44:29.714Z,28.8
2019-04-04T16:49:32.156Z,29.5
2019-04-04T16:54:34.594Z,30.1
2019-04-04T16:59:37.074Z,30.8
2019-04-04T17:04:39.536Z,31.5
2019-04-04T17:09:42.355Z,32.3
2019-04-04T17:14:44.548Z,33
2019-04-04T17:19:46.868Z,33.7
2019-04-04T17:24:49.272Z,34.6
2019-04-04T17:29:51.735Z,35.3
2019-04-04T17:34:54.152Z,36
2019-04-04T17:39:56.940Z,36.8
2019-04-04T17:45:01.130Z,37.3
2019-04-04T17:50:01.739Z,37.9
2019-04-04T17:55:03.973Z,38.3
2019-04-04T18:00:06.425Z,38.8
2019-04-04T18:05:08.826Z,39.2
2019-04-04T18:10:11.665Z,39.5
2019-04-04T18:15:13.683Z,39.7
2019-04-04T18:20:16.097Z,39.9
2019-04-04T18:25:18.535Z,40.2
2019-04-04T18:30:21.096Z,40.5
2019-04-04T18:35:23.417Z,40.8
2019-04-04T18:40:26.252Z,41.2
2019-04-04T18:45:28.390Z,41.7
2019-04-04T18:50:30.731Z,42
2019-04-04T18:55:33.321Z,42.2
2019-04-04T19:00:35.728Z,42.3
2019-04-04T19:05:38.092Z,42.9
2019-04-04T19:10:40.849Z,43.4
2019-04-04T19:15:42.947Z,43.5
2019-04-04T19:20:45.414Z,43.7
2019-04-04T19:25:47.858Z,44
2019-04-04T19:30:50.359Z,44.1
2019-04-04T19:35:52.757Z,44.5
2019-04-04T19:45:57.585Z,44.7
2019-04-04T19:51:00.051Z,44.9
2019-04-04T19:56:02.482Z,45
2019-04-04T20:01:04.922Z,45.2
2019-04-04T20:06:07.356Z,45.2
2019-04-04T20:11:09.779Z,45.8
2019-04-04T20:16:12.529Z,45.9
2019-04-04T20:21:14.702Z,45.7
2019-04-04T20:26:17.141Z,45.9
2019-04-04T20:31:19.649Z,46
2019-04-04T20:36:22.079Z,46
2019-04-04T20:41:24.802Z,46.3
2019-04-04T20:46:26.993Z,46.1
2019-04-04T20:51:29.329Z,46.4
2019-04-04T20:56:31.821Z,46.6
2019-04-04T21:01:34.419Z,47.2
2019-04-04T21:06:37.106Z,47.4
2019-04-04T21:11:39.405Z,47.4
2019-04-04T21:16:41.710Z,47.8
2019-04-04T21:21:43.961Z,47.5
2019-04-04T21:26:46.421Z,48.4
2019-04-04T21:31:48.930Z,49.4
2019-04-04T21:36:51.344Z,52
2019-04-04T21:41:53.750Z,55.9
2019-04-04T21:46:56.146Z,61
2019-04-04T21:51:58.602Z,71
2019-04-04T21:57:01.043Z,77.6
2019-04-04T22:02:03.520Z,81.7
2019-04-04T22:07:06.072Z,86.6
2019-04-04T22:17:10.836Z,91.9
2019-04-04T22:22:13.246Z,93.2
2019-04-04T22:27:15.661Z,93.7
2019-04-04T22:32:18.191Z,95
2019-04-04T22:37:20.620Z,94.5
2019-04-04T22:42:22.997Z,94.7
2019-04-04T22:47:25.445Z,94.1
2019-04-04T22:52:27.864Z,92.5
2019-04-04T22:57:30.365Z,91.1
2019-04-04T23:02:32.767Z,89.4
2019-04-04T23:07:36.619Z,87.5
2019-04-04T23:12:37.633Z,87.2
2019-04-04T23:17:40.084Z,91.7
2019-04-04T23:22:52.083Z,92
2019-04-04T23:27:44.956Z,91.9
2019-04-04T23:32:47.407Z,91.3
2019-04-04T23:37:49.932Z,91.2
2019-04-04T23:42:52.267Z,93
2019-04-04T23:47:54.728Z,93.5
2019-04-04T23:52:57.151Z,95
2019-04-04T23:57:59.597Z,95.6
